createdAt,value
2017-05-24T00:01:02.031Z,86.33
2017-05-24T00:02:13.037Z,86.61
2017-05-24T00:03:24.035Z,86.23
2017-05-24T00:04:35.253Z,87.09
2017-05-24T00:05:46.274Z,85.94
2017-05-24T00:06:57.529Z,86.43
2017-05-24T00:08:08.532Z,85.75
2017-05-24T00:09:19.747Z,86.33
2017-05-24T00:10:30.753Z,86.14
2017-05-24T00:11:41.751Z,86.52
2017-05-24T00:12:53.001Z,86.61
2017-05-24T00:14:04.005Z,86.04
2017-05-24T00:15:15.085Z,86.61
2017-05-24T00:16:26.084Z,87.09
2017-05-24T00:17:37.293Z,86.33
2017-05-24T00:18:48.363Z,85.85
2017-05-24T00:19:59.446Z,85.85
2017-05-24T00:21:10.448Z,86.61
2017-05-24T00:22:21.444Z,86
2017-05-24T00:23:32.453Z,86.86
2017-05-24T00:24:43.516Z,87.91
2017-05-24T00:25:54.522Z,88.53
2017-05-24T00:27:05.533Z,87.62
2017-05-24T00:28:16.549Z,88.2
2017-05-24T00:29:27.555Z,86.57
2017-05-24T00:30:38.558Z,86.76
2017-05-24T00:31:49.632Z,86.19
2017-05-24T00:33:00.837Z,87.24
2017-05-24T00:34:11.852Z,87.24
2017-05-24T00:35:22.904Z,86.19
2017-05-24T00:36:33.920Z,87.34
2017-05-24T00:37:44.936Z,87.43
2017-05-24T00:38:55.958Z,86.96
2017-05-24T00:40:07.169Z,86.96
2017-05-24T00:41:18.220Z,86.29
2017-05-24T00:42:29.231Z,86.96
2017-05-24T00:43:40.438Z,86.76
2017-05-24T00:44:51.475Z,87.34
2017-05-24T00:46:02.899Z,88.01
2017-05-24T00:47:13.946Z,86.72
2017-05-24T00:48:25.159Z,86.91
2017-05-24T00:49:36.160Z,87.15
2017-05-24T00:50:47.166Z,88.29
2017-05-24T00:51:58.178Z,88.34
2017-05-24T00:53:09.438Z,87.1
2017-05-24T00:54:20.453Z,87.2
2017-05-24T00:55:31.463Z,86.91
2017-05-24T00:56:42.483Z,87.1
2017-05-24T00:57:53.497Z,87.39
2017-05-24T00:59:04.759Z,87.29
2017-05-24T01:00:15.763Z,87.2
2017-05-24T01:01:26.773Z,86.91
2017-05-24T01:02:37.790Z,86.91
2017-05-24T01:03:48.807Z,86.72
2017-05-24T01:04:59.888Z,87.2
2017-05-24T01:06:11.307Z,88.25
2017-05-24T01:07:22.315Z,89.2
2017-05-24T01:08:33.310Z,89.78
2017-05-24T01:09:44.316Z,89.11
2017-05-24T01:10:55.525Z,88.25
2017-05-24T01:12:06.535Z,87.48
2017-05-24T01:13:17.557Z,87.2
2017-05-24T01:14:28.570Z,87.2
2017-05-24T01:15:39.628Z,87.29
2017-05-24T01:16:50.637Z,87.87
2017-05-24T01:18:01.656Z,88.25
2017-05-24T01:19:12.663Z,88.15
2017-05-24T01:20:23.890Z,89.68
2017-05-24T01:21:34.946Z,89.68
2017-05-24T01:22:45.958Z,88.97
2017-05-24T01:23:56.976Z,88.87
2017-05-24T01:25:07.990Z,88.68
2017-05-24T01:26:19.000Z,90.21
2017-05-24T01:27:30.308Z,89.25
2017-05-24T01:28:41.324Z,90.5
2017-05-24T01:29:52.538Z,90.69
2017-05-24T01:31:03.608Z,90.5
2017-05-24T01:32:14.834Z,89.64
2017-05-24T01:33:26.094Z,88.97
2017-05-24T01:34:37.106Z,88.49
2017-05-24T01:35:48.136Z,88.01
2017-05-24T01:36:59.146Z,88.11
2017-05-24T01:38:10.349Z,87.25
2017-05-24T01:39:21.412Z,87.63
2017-05-24T01:40:32.426Z,87.44
2017-05-24T01:41:43.434Z,87.73
2017-05-24T01:42:54.447Z,87.25
2017-05-24T01:44:05.469Z,86.87
2017-05-24T01:45:16.532Z,87.73
2017-05-24T01:46:27.551Z,87.35
2017-05-24T01:47:38.566Z,87.25
2017-05-24T01:48:49.584Z,87.15
2017-05-24T01:50:00.806Z,86.87
2017-05-24T01:51:11.857Z,87.54
2017-05-24T01:52:22.867Z,88.11
2017-05-24T01:53:34.069Z,87.82
2017-05-24T01:54:45.089Z,88.2
2017-05-24T01:55:56.508Z,88.87
2017-05-24T01:57:07.567Z,89.4
2017-05-24T01:58:18.580Z,89.21
2017-05-24T01:59:29.593Z,88.83
2017-05-24T02:00:40.606Z,89.88
2017-05-24T02:01:51.625Z,88.92
2017-05-24T02:03:02.693Z,88.83
2017-05-24T02:04:13.895Z,88.54
2017-05-24T02:05:24.920Z,88.16
2017-05-24T02:06:35.928Z,88.54
2017-05-24T02:07:46.929Z,88.16
2017-05-24T02:08:58.002Z,88.07
2017-05-24T02:10:09.008Z,88.54
2017-05-24T02:11:20.015Z,87.87
2017-05-24T02:12:31.019Z,87.97
2017-05-24T02:13:42.037Z,87.87
2017-05-24T02:14:53.104Z,88.07
2017-05-24T02:16:04.105Z,87.68
2017-05-24T02:17:15.325Z,87.59
2017-05-24T02:18:26.594Z,88.16
2017-05-24T02:19:37.616Z,88.45
2017-05-24T02:20:48.625Z,88.26
2017-05-24T02:21:59.647Z,88.45
2017-05-24T02:23:10.656Z,88.26
2017-05-24T02:24:21.671Z,88.92
2017-05-24T02:25:32.722Z,88.78
2017-05-24T02:26:43.734Z,88.26
2017-05-24T02:27:54.756Z,88.35
2017-05-24T02:29:05.782Z,89.12
2017-05-24T02:30:16.801Z,89.31
2017-05-24T02:31:27.872Z,89.4
2017-05-24T02:32:38.871Z,91.74
2017-05-24T02:33:50.097Z,92.88
2017-05-24T02:35:01.094Z,92.79
2017-05-24T02:36:12.111Z,93.93
2017-05-24T02:37:23.565Z,94.6
2017-05-24T02:38:34.768Z,93.65
2017-05-24T02:39:45.788Z,93.65
2017-05-24T02:40:57.000Z,93.93
2017-05-24T02:42:08.009Z,93.55
2017-05-24T02:43:19.268Z,95.84
2017-05-24T02:44:30.351Z,97.37
2017-05-24T02:45:41.366Z,97.46
2017-05-24T02:46:52.375Z,97.46
2017-05-24T02:48:03.597Z,98.03
2017-05-24T02:49:14.667Z,97.27
2017-05-24T02:50:25.679Z,96.03
2017-05-24T02:51:36.695Z,94.7
2017-05-24T02:52:47.903Z,96.32
2017-05-24T02:53:58.920Z,93.65
2017-05-24T02:55:10.185Z,94.98
2017-05-24T02:56:21.203Z,95.94
2017-05-24T02:57:32.614Z,94.89
2017-05-24T02:58:43.622Z,95.08
2017-05-24T02:59:54.631Z,94.32
2017-05-24T03:01:05.691Z,93.08
2017-05-24T03:02:16.701Z,92.32
2017-05-24T03:03:27.719Z,92.32
2017-05-24T03:04:38.739Z,91.55
2017-05-24T03:05:49.751Z,91.07
2017-05-24T03:07:00.815Z,91.83
2017-05-24T03:08:12.023Z,94.51
2017-05-24T03:09:23.242Z,96.13
2017-05-24T03:10:34.230Z,96.8
2017-05-24T03:11:45.245Z,98.61
2017-05-24T03:12:56.303Z,96.51
2017-05-24T03:14:07.315Z,98.13
2017-05-24T03:15:18.347Z,97.94
2017-05-24T03:16:29.360Z,98.61
2017-05-24T03:17:40.369Z,99.46
2017-05-24T03:18:51.436Z,99.46
2017-05-24T03:20:02.453Z,99.66
2017-05-24T03:21:13.865Z,99.56
2017-05-24T03:22:24.861Z,99.56
2017-05-24T03:23:36.065Z,99.37
2017-05-24T03:24:47.127Z,98.18
2017-05-24T03:25:58.341Z,96.46
2017-05-24T03:27:09.348Z,94.84
2017-05-24T03:28:20.370Z,94.37
2017-05-24T03:29:31.588Z,92.84
2017-05-24T03:30:42.599Z,93.27
2017-05-24T03:31:54.017Z,94.6
2017-05-24T03:33:05.028Z,93.08
2017-05-24T03:34:16.032Z,92.6
2017-05-24T03:35:27.098Z,91.74
2017-05-24T03:36:38.105Z,91.07
2017-05-24T03:37:49.116Z,92.32
2017-05-24T03:39:00.327Z,91.36
2017-05-24T03:40:11.344Z,91.83
2017-05-24T03:41:22.403Z,93.36
2017-05-24T03:42:33.613Z,92.41
2017-05-24T03:43:44.628Z,91.64
2017-05-24T03:44:55.627Z,92.12
2017-05-24T03:46:06.628Z,91.55
2017-05-24T03:47:17.681Z,91.07
2017-05-24T03:48:28.690Z,91.46
2017-05-24T03:49:39.695Z,91.83
2017-05-24T03:50:50.912Z,91.83
2017-05-24T03:52:01.906Z,92.5
2017-05-24T03:53:12.963Z,93.08
2017-05-24T03:54:24.036Z,91.83
2017-05-24T03:55:35.058Z,92.6
2017-05-24T03:56:46.068Z,93.74
2017-05-24T03:57:57.089Z,96.32
2017-05-24T03:59:08.346Z,97.17
2017-05-24T04:00:19.361Z,97.94
2017-05-24T04:01:30.569Z,99.27
2017-05-24T04:02:41.603Z,99.8
2017-05-24T04:03:52.604Z,99.99
2017-05-24T04:05:03.812Z,99.99
2017-05-24T04:06:15.035Z,99.99
2017-05-24T04:07:26.243Z,99.99
2017-05-24T04:08:37.263Z,99.99
2017-05-24T04:09:48.328Z,97.89
2017-05-24T04:10:59.537Z,98.46
2017-05-24T04:12:10.546Z,97.99
2017-05-24T04:13:21.556Z,98.08
2017-05-24T04:14:32.767Z,96.56
2017-05-24T04:15:43.834Z,96.08
2017-05-24T04:16:54.859Z,94.93
2017-05-24T04:18:05.876Z,94.27
2017-05-24T04:19:16.896Z,93.98
2017-05-24T04:20:27.902Z,94.32
2017-05-24T04:21:38.953Z,93.22
2017-05-24T04:22:49.950Z,93.93
2017-05-24T04:24:00.958Z,93.84
2017-05-24T04:25:12.158Z,93.84
2017-05-24T04:26:23.170Z,93.08
2017-05-24T04:27:34.420Z,93.17
2017-05-24T04:28:45.425Z,93.93
2017-05-24T04:29:56.433Z,98.51
2017-05-24T04:31:07.448Z,99.46
2017-05-24T04:32:18.457Z,98.32
2017-05-24T04:33:29.918Z,97.37
2017-05-24T04:34:40.927Z,96.41
2017-05-24T04:35:52.132Z,98.85
2017-05-24T04:37:03.136Z,98.03
2017-05-24T04:38:14.152Z,98.13
2017-05-24T04:39:25.226Z,96.7
2017-05-24T04:40:36.244Z,97.37
2017-05-24T04:41:47.246Z,98.08
2017-05-24T04:42:58.246Z,97.46
2017-05-24T04:44:09.253Z,96.84
2017-05-24T04:45:20.528Z,95.61
2017-05-24T04:46:31.540Z,95.89
2017-05-24T04:47:42.552Z,98.66
2017-05-24T04:48:53.570Z,99.99
2017-05-24T04:50:04.992Z,99.99
2017-05-24T04:51:16.054Z,99.99
2017-05-24T04:52:27.058Z,99.99
2017-05-24T04:53:38.064Z,99.99
2017-05-24T04:54:49.293Z,99.99
2017-05-24T04:56:00.346Z,99.99
2017-05-24T04:57:11.405Z,97.51
2017-05-24T04:58:22.418Z,94.36
2017-05-24T04:59:33.422Z,93.41
2017-05-24T05:00:44.428Z,92.65
2017-05-24T05:01:55.429Z,92.31
2017-05-24T05:03:06.484Z,91.45
2017-05-24T05:04:17.538Z,90.02
2017-05-24T05:05:28.560Z,91.64
2017-05-24T05:06:39.570Z,92.6
2017-05-24T05:07:50.570Z,91.74
2017-05-24T05:09:01.641Z,90.11
2017-05-24T05:10:12.652Z,91.26
2017-05-24T05:11:23.863Z,93.6
2017-05-24T05:12:35.087Z,92.16
2017-05-24T05:13:46.115Z,90.83
2017-05-24T05:14:57.181Z,91.3
2017-05-24T05:16:08.209Z,90.64
2017-05-24T05:17:19.230Z,89.39
2017-05-24T05:18:30.237Z,89.68
2017-05-24T05:19:41.259Z,89.78
2017-05-24T05:20:52.278Z,89.01
2017-05-24T05:22:03.293Z,91.06
2017-05-24T05:23:14.303Z,93.55
2017-05-24T05:24:25.516Z,92.69
2017-05-24T05:25:36.578Z,91.83
2017-05-24T05:26:47.582Z,91.64
2017-05-24T05:27:58.615Z,91.16
2017-05-24T05:29:09.643Z,90.11
2017-05-24T05:30:20.651Z,90.68
2017-05-24T05:31:31.906Z,92.11
2017-05-24T05:32:43.124Z,91.64
2017-05-24T05:33:54.547Z,92.11
2017-05-24T05:35:05.558Z,90.44
2017-05-24T05:36:16.780Z,90.82
2017-05-24T05:37:27.843Z,90.92
2017-05-24T05:38:38.919Z,90.16
2017-05-24T05:39:50.204Z,89.58
2017-05-24T05:41:01.233Z,88.24
2017-05-24T05:42:12.245Z,89.58
2017-05-24T05:43:23.316Z,91.59
2017-05-24T05:44:34.336Z,90.82
2017-05-24T05:45:45.341Z,91.59
2017-05-24T05:46:56.359Z,91.2
2017-05-24T05:48:07.365Z,90.63
2017-05-24T05:49:18.632Z,91.39
2017-05-24T05:50:29.641Z,91.97
2017-05-24T05:51:40.659Z,89.39
2017-05-24T05:52:51.675Z,89.29
2017-05-24T05:54:02.693Z,86.9
2017-05-24T05:55:13.976Z,90.39
2017-05-24T05:56:25.194Z,87.33
2017-05-24T05:57:36.203Z,88.38
2017-05-24T05:58:47.427Z,88.67
2017-05-24T05:59:58.633Z,88.86
2017-05-24T06:01:09.689Z,88.71
2017-05-24T06:02:20.899Z,88.81
2017-05-24T06:03:32.121Z,89.33
2017-05-24T06:04:43.344Z,89.23
2017-05-24T06:05:54.365Z,86.08
2017-05-24T06:07:05.634Z,85.5
2017-05-24T06:08:16.645Z,84.06
2017-05-24T06:09:27.654Z,85.12
2017-05-24T06:10:38.872Z,87.9
2017-05-24T06:11:49.889Z,85.41
2017-05-24T06:13:00.952Z,86.55
2017-05-24T06:14:11.973Z,86.65
2017-05-24T06:15:22.982Z,83.63
2017-05-24T06:16:34.006Z,85.16
2017-05-24T06:17:45.031Z,85.21
2017-05-24T06:18:56.104Z,84.15
2017-05-24T06:20:07.130Z,83.23
2017-05-24T06:21:18.138Z,84.42
2017-05-24T06:22:29.163Z,81.68
2017-05-24T06:23:40.174Z,80.91
2017-05-24T06:24:51.319Z,78.75
2017-05-24T06:26:02.338Z,77.88
2017-05-24T06:27:13.565Z,78.08
2017-05-24T06:28:24.591Z,79.52
2017-05-24T06:29:35.625Z,77.83
2017-05-24T06:30:46.851Z,73.25
2017-05-24T06:31:57.882Z,74.54
2017-05-24T06:33:08.919Z,73.28
2017-05-24T06:34:19.935Z,73.28
2017-05-24T06:35:31.001Z,73.96
2017-05-24T06:36:42.046Z,71.46
2017-05-24T06:37:53.071Z,74.63
2017-05-24T06:39:04.102Z,75.65
2017-05-24T06:40:15.124Z,73.73
2017-05-24T06:41:26.199Z,77.06
2017-05-24T06:42:37.211Z,78.21
2017-05-24T06:43:48.234Z,76.34
2017-05-24T06:44:59.256Z,78.27
2017-05-24T06:46:10.280Z,80.57
2017-05-24T06:47:21.350Z,79.99
2017-05-24T06:48:32.584Z,80.57
2017-05-24T06:49:43.611Z,79.57
2017-05-24T06:50:54.621Z,81.4
2017-05-24T06:52:05.836Z,81.2
2017-05-24T06:53:17.122Z,81.2
2017-05-24T06:54:28.156Z,81.74
2017-05-24T06:55:39.157Z,83.08
2017-05-24T06:56:50.179Z,81.07
2017-05-24T06:58:01.408Z,81.16
2017-05-24T06:59:12.486Z,81.35
2017-05-24T07:00:23.514Z,82.89
2017-05-24T07:01:34.731Z,82.7
2017-05-24T07:02:45.949Z,82.98
2017-05-24T07:03:57.163Z,83.08
2017-05-24T07:05:08.247Z,83.85
2017-05-24T07:06:19.274Z,83.75
2017-05-24T07:07:30.295Z,81.45
2017-05-24T07:08:41.580Z,82.7
2017-05-24T07:09:52.601Z,83.75
2017-05-24T07:11:03.720Z,83.71
2017-05-24T07:12:14.743Z,82.75
2017-05-24T07:13:25.974Z,83.33
2017-05-24T07:14:36.996Z,83.52
2017-05-24T07:15:48.029Z,83.42
2017-05-24T07:16:59.091Z,83.33
2017-05-24T07:18:10.110Z,81.31
2017-05-24T07:19:21.119Z,81.79
2017-05-24T07:20:32.347Z,82.85
2017-05-24T07:21:43.575Z,83.04
2017-05-24T07:22:54.639Z,82.65
2017-05-24T07:24:05.649Z,82.56
2017-05-24T07:25:16.678Z,83.71
2017-05-24T07:26:27.701Z,81.41
2017-05-24T07:27:38.720Z,82.75
2017-05-24T07:28:49.786Z,82.85
2017-05-24T07:30:00.810Z,83.76
2017-05-24T07:31:11.830Z,85.53
2017-05-24T07:32:23.255Z,84.09
2017-05-24T07:33:34.270Z,84.38
2017-05-24T07:34:45.345Z,83.61
2017-05-24T07:35:56.355Z,84.19
2017-05-24T07:37:07.390Z,83.61
2017-05-24T07:38:18.817Z,83.14
2017-05-24T07:39:29.841Z,83.71
2017-05-24T07:40:40.862Z,82.65
2017-05-24T07:41:51.878Z,82.08
2017-05-24T07:43:02.900Z,81.51
2017-05-24T07:44:13.962Z,83.14
2017-05-24T07:45:25.024Z,81.6
2017-05-24T07:46:36.040Z,80.55
2017-05-24T07:47:47.247Z,80.35
2017-05-24T07:48:58.262Z,81.64
2017-05-24T07:50:09.279Z,80.97
2017-05-24T07:51:20.546Z,81.35
2017-05-24T07:52:31.548Z,80.2
2017-05-24T07:53:42.565Z,80.68
2017-05-24T07:54:53.778Z,80.68
2017-05-24T07:56:05.010Z,80.63
2017-05-24T07:57:16.151Z,80.43
2017-05-24T07:58:27.165Z,80.2
2017-05-24T07:59:38.387Z,81.2
2017-05-24T08:00:49.605Z,79.19
2017-05-24T08:02:00.618Z,80.05
2017-05-24T08:03:11.694Z,79.38
2017-05-24T08:04:22.725Z,79.32
2017-05-24T08:05:33.753Z,79.42
2017-05-24T08:06:44.775Z,80.19
2017-05-24T08:07:55.997Z,77.69
2017-05-24T08:09:07.262Z,77.11
2017-05-24T08:10:18.281Z,76.25
2017-05-24T08:11:29.290Z,78.17
2017-05-24T08:12:40.501Z,77.01
2017-05-24T08:13:51.583Z,78.08
2017-05-24T08:15:02.643Z,79.42
2017-05-24T08:16:13.657Z,78.75
2017-05-24T08:17:24.679Z,78.55
2017-05-24T08:18:35.694Z,78.94
2017-05-24T08:19:46.768Z,79.13
2017-05-24T08:20:58.063Z,79.22
2017-05-24T08:22:09.090Z,79.52
2017-05-24T08:23:20.106Z,78.84
2017-05-24T08:24:31.161Z,80.09
2017-05-24T08:25:42.441Z,80.13
2017-05-24T08:26:53.467Z,78.02
2017-05-24T08:28:04.485Z,77.67
2017-05-24T08:29:15.501Z,77.29
2017-05-24T08:30:26.519Z,76.61
2017-05-24T08:31:37.790Z,77
2017-05-24T08:32:48.809Z,77.86
2017-05-24T08:33:59.832Z,78
2017-05-24T08:35:10.855Z,76.65
2017-05-24T08:36:22.099Z,76.4
2017-05-24T08:37:33.381Z,74.96
2017-05-24T08:38:44.409Z,74.76
2017-05-24T08:39:55.438Z,75.38
2017-05-24T08:41:06.654Z,74.32
2017-05-24T08:42:17.672Z,75.44
2017-05-24T08:43:28.749Z,75.34
2017-05-24T08:44:39.774Z,75.15
2017-05-24T08:45:50.803Z,76.82
2017-05-24T08:47:02.044Z,76.5
2017-05-24T08:48:13.077Z,76.4
2017-05-24T08:49:24.150Z,75.73
2017-05-24T08:50:35.165Z,76.98
2017-05-24T08:51:46.203Z,76.01
2017-05-24T08:52:57.230Z,77.26
2017-05-24T08:54:08.514Z,75.73
2017-05-24T08:55:19.580Z,76.17
2017-05-24T08:56:30.602Z,75.24
2017-05-24T08:57:42.019Z,75.92
2017-05-24T08:58:53.035Z,75.31
2017-05-24T09:00:04.054Z,76.65
2017-05-24T09:01:15.120Z,76.17
2017-05-24T09:02:26.143Z,76.46
2017-05-24T09:03:37.359Z,78.38
2017-05-24T09:04:48.364Z,77.33
2017-05-24T09:05:59.381Z,76.46
2017-05-24T09:07:10.450Z,75.98
2017-05-24T09:08:21.476Z,75.05
2017-05-24T09:09:32.692Z,74.96
2017-05-24T09:10:43.719Z,75.15
2017-05-24T09:11:54.946Z,75.15
2017-05-24T09:13:06.015Z,75.11
2017-05-24T09:14:17.019Z,75.49
2017-05-24T09:15:28.246Z,76.46
2017-05-24T09:16:39.261Z,75.24
2017-05-24T09:17:50.538Z,76.21
2017-05-24T09:19:01.821Z,75.63
2017-05-24T09:20:12.845Z,76.92
2017-05-24T09:21:23.869Z,74.71
2017-05-24T09:22:35.101Z,74.36
2017-05-24T09:23:46.331Z,73.97
2017-05-24T09:24:57.409Z,73.05
2017-05-24T09:26:08.441Z,72.85
2017-05-24T09:27:19.446Z,72.75
2017-05-24T09:28:30.666Z,71.31
2017-05-24T09:29:41.685Z,70.44
2017-05-24T09:30:52.710Z,71.6
2017-05-24T09:32:03.727Z,70.25
2017-05-24T09:33:14.753Z,70.25
2017-05-24T09:34:25.985Z,70.57
2017-05-24T09:35:37.065Z,69.9
2017-05-24T09:36:48.093Z,68.93
2017-05-24T09:37:59.133Z,69.23
2017-05-24T09:39:10.160Z,69.51
2017-05-24T09:40:21.381Z,69.13
2017-05-24T09:41:32.444Z,68.65
2017-05-24T09:42:44.067Z,67.68
2017-05-24T09:43:55.079Z,68.45
2017-05-24T09:45:06.175Z,67.88
2017-05-24T09:46:17.191Z,68.65
2017-05-24T09:47:28.259Z,67.88
2017-05-24T09:48:39.290Z,68.71
2017-05-24T09:49:50.318Z,69.09
2017-05-24T09:51:01.330Z,69.77
2017-05-24T09:52:12.354Z,69.96
2017-05-24T09:53:23.634Z,70.92
2017-05-24T09:54:34.662Z,70.73
2017-05-24T09:55:45.688Z,70.44
2017-05-24T09:56:56.714Z,70.44
2017-05-24T09:58:07.740Z,70.92
2017-05-24T09:59:18.817Z,71.02
2017-05-24T10:00:29.852Z,71.5
2017-05-24T10:01:40.875Z,72.27
2017-05-24T10:02:51.900Z,72.27
2017-05-24T10:04:03.121Z,72.41
2017-05-24T10:05:14.392Z,72.5
2017-05-24T10:06:25.415Z,70.86
2017-05-24T10:07:36.444Z,70.51
2017-05-24T10:08:47.483Z,69.64
2017-05-24T10:09:58.504Z,71.8
2017-05-24T10:11:09.641Z,71.03
2017-05-24T10:12:20.724Z,69.13
2017-05-24T10:13:31.950Z,66.33
2017-05-24T10:14:42.964Z,67.11
2017-05-24T10:15:53.998Z,67.88
2017-05-24T10:17:05.078Z,67.4
2017-05-24T10:18:16.102Z,66.82
2017-05-24T10:19:27.136Z,67.88
2017-05-24T10:20:38.153Z,67.88
2017-05-24T10:21:49.192Z,67.69
2017-05-24T10:23:00.252Z,66.75
2017-05-24T10:24:11.275Z,68.01
2017-05-24T10:25:22.342Z,67.24
2017-05-24T10:26:33.566Z,67.91
2017-05-24T10:27:44.793Z,68.59
2017-05-24T10:28:55.878Z,66.66
2017-05-24T10:30:06.894Z,66.17
2017-05-24T10:31:18.127Z,67.78
2017-05-24T10:32:29.152Z,68.26
2017-05-24T10:33:40.173Z,70.29
2017-05-24T10:34:51.255Z,69.52
2017-05-24T10:36:02.335Z,68.26
2017-05-24T10:37:13.365Z,68.55
2017-05-24T10:38:24.402Z,69.04
2017-05-24T10:39:35.638Z,68.84
2017-05-24T10:40:46.682Z,68.01
2017-05-24T10:41:57.713Z,67.14
2017-05-24T10:43:08.737Z,68.1
2017-05-24T10:44:19.970Z,68.26
2017-05-24T10:45:31.070Z,68.4
2017-05-24T10:46:42.094Z,67.04
2017-05-24T10:47:53.122Z,67.72
2017-05-24T10:49:04.140Z,67.49
2017-05-24T10:50:15.159Z,69.07
2017-05-24T10:51:26.227Z,67.82
2017-05-24T10:52:37.457Z,67.85
2017-05-24T10:53:48.693Z,67.27
2017-05-24T10:54:59.707Z,66.69
2017-05-24T10:56:10.733Z,68.24
2017-05-24T10:57:21.815Z,67.94
2017-05-24T10:58:32.842Z,65.63
2017-05-24T10:59:43.864Z,65.92
2017-05-24T11:00:54.885Z,68.33
2017-05-24T11:02:05.907Z,67.17
2017-05-24T11:03:16.999Z,67.08
2017-05-24T11:04:28.018Z,67.91
2017-05-24T11:05:39.038Z,67.52
2017-05-24T11:06:50.064Z,68.04
2017-05-24T11:08:01.093Z,69.36
2017-05-24T11:09:12.370Z,68.04
2017-05-24T11:10:23.394Z,67.17
2017-05-24T11:11:34.419Z,67.11
2017-05-24T11:12:45.438Z,66.24
2017-05-24T11:13:56.455Z,67.82
2017-05-24T11:15:07.715Z,66.17
2017-05-24T11:16:18.743Z,65.92
2017-05-24T11:17:29.781Z,66.11
2017-05-24T11:18:40.818Z,65.72
2017-05-24T11:19:51.853Z,64.79
2017-05-24T11:21:02.917Z,64.69
2017-05-24T11:22:13.943Z,65.56
2017-05-24T11:23:24.959Z,66.34
2017-05-24T11:24:35.981Z,65.56
2017-05-24T11:25:47.015Z,65.95
2017-05-24T11:26:58.285Z,64.43
2017-05-24T11:28:09.315Z,65.2
2017-05-24T11:29:20.335Z,65.2
2017-05-24T11:30:31.360Z,63.75
2017-05-24T11:31:42.455Z,65.11
2017-05-24T11:32:53.537Z,64.62
2017-05-24T11:34:04.568Z,64.14
2017-05-24T11:35:15.796Z,64.24
2017-05-24T11:36:27.035Z,64.4
2017-05-24T11:37:38.073Z,65.85
2017-05-24T11:38:49.155Z,65.66
2017-05-24T11:40:00.383Z,64.98
2017-05-24T11:41:11.438Z,66.78
2017-05-24T11:42:22.460Z,66.88
2017-05-24T11:43:33.497Z,66.88
2017-05-24T11:44:44.771Z,66.88
2017-05-24T11:45:55.797Z,67.85
2017-05-24T11:47:06.830Z,67.18
2017-05-24T11:48:18.064Z,65.24
2017-05-24T11:49:29.086Z,66.4
2017-05-24T11:50:40.313Z,68.05
2017-05-24T11:51:51.340Z,65.63
2017-05-24T11:53:02.365Z,66.5
2017-05-24T11:54:13.598Z,68.05
2017-05-24T11:55:24.675Z,66.88
2017-05-24T11:56:35.694Z,66.5
2017-05-24T11:57:46.714Z,67.56
2017-05-24T11:58:57.744Z,67.18
2017-05-24T12:00:08.759Z,66.6
2017-05-24T12:01:19.832Z,66.98
2017-05-24T12:02:31.057Z,66.4
2017-05-24T12:03:42.080Z,67.14
2017-05-24T12:04:53.105Z,68.01
2017-05-24T12:06:04.328Z,67.33
2017-05-24T12:07:15.400Z,67.91
2017-05-24T12:08:26.437Z,68.05
2017-05-24T12:09:37.463Z,67.08
2017-05-24T12:10:48.498Z,66.3
2017-05-24T12:11:59.525Z,67.27
2017-05-24T12:13:10.595Z,67.21
2017-05-24T12:14:21.612Z,67.02
2017-05-24T12:15:32.641Z,66.63
2017-05-24T12:16:43.656Z,66.63
2017-05-24T12:17:54.677Z,66.82
2017-05-24T12:19:05.945Z,68.02
2017-05-24T12:20:17.168Z,66.66
2017-05-24T12:21:28.185Z,66.66
2017-05-24T12:22:39.206Z,64.24
2017-05-24T12:23:50.429Z,65.79
2017-05-24T12:25:01.505Z,66.75
2017-05-24T12:26:12.721Z,65.98
2017-05-24T12:27:23.942Z,65.69
2017-05-24T12:28:34.967Z,66.08
2017-05-24T12:29:45.986Z,64.89
2017-05-24T12:30:57.029Z,66.72
2017-05-24T12:32:08.048Z,67.02
2017-05-24T12:33:19.072Z,66.34
2017-05-24T12:34:30.297Z,67.95
2017-05-24T12:35:41.377Z,66.5
2017-05-24T12:36:52.383Z,68.43
2017-05-24T12:38:03.621Z,67.08
2017-05-24T12:39:14.647Z,68.11
2017-05-24T12:40:25.679Z,67.82
2017-05-24T12:41:36.746Z,68.69
2017-05-24T12:42:47.757Z,68.01
2017-05-24T12:43:58.792Z,70.14
2017-05-24T12:45:10.013Z,69.46
2017-05-24T12:46:21.230Z,68.98
2017-05-24T12:47:32.305Z,68.69
2017-05-24T12:48:43.335Z,69.46
2017-05-24T12:49:54.363Z,71.11
2017-05-24T12:51:05.375Z,70.72
2017-05-24T12:52:16.414Z,71.2
2017-05-24T12:53:27.484Z,70.53
2017-05-24T12:54:38.498Z,69.82
2017-05-24T12:55:49.520Z,71.66
2017-05-24T12:57:00.533Z,70.46
2017-05-24T12:58:11.762Z,69.68
2017-05-24T12:59:23.241Z,70.9
2017-05-24T13:00:34.271Z,71.3
2017-05-24T13:01:45.293Z,70.23
2017-05-24T13:02:56.724Z,71.48
2017-05-24T13:04:07.743Z,71.39
2017-05-24T13:05:18.813Z,71.88
2017-05-24T13:06:29.885Z,71.39
2017-05-24T13:07:40.908Z,73.13
2017-05-24T13:08:51.927Z,71.3
2017-05-24T13:10:02.942Z,71.58
2017-05-24T13:11:14.411Z,72.74
2017-05-24T13:12:25.437Z,74.1
2017-05-24T13:13:36.457Z,72.94
2017-05-24T13:14:47.668Z,71.74
2017-05-24T13:15:58.894Z,74.44
2017-05-24T13:17:09.973Z,74.06
2017-05-24T13:18:20.991Z,74.35
2017-05-24T13:19:32.015Z,73.19
2017-05-24T13:20:43.061Z,74.6
2017-05-24T13:21:54.344Z,75.37
2017-05-24T13:23:05.408Z,75.37
2017-05-24T13:24:16.414Z,74.31
2017-05-24T13:25:27.435Z,74.79
2017-05-24T13:26:38.470Z,74.57
2017-05-24T13:27:49.493Z,74.47
2017-05-24T13:29:00.573Z,76.4
2017-05-24T13:30:11.600Z,75.24
2017-05-24T13:31:22.608Z,76.07
2017-05-24T13:32:33.631Z,75.88
2017-05-24T13:33:44.645Z,75.4
2017-05-24T13:34:55.921Z,75.59
2017-05-24T13:36:06.968Z,76.26
2017-05-24T13:37:17.992Z,78.38
2017-05-24T13:38:29.013Z,77.33
2017-05-24T13:39:40.243Z,76.26
2017-05-24T13:40:51.264Z,76.23
2017-05-24T13:42:02.285Z,77.13
2017-05-24T13:43:13.321Z,77.38
2017-05-24T13:44:24.341Z,77.48
2017-05-24T13:45:35.611Z,78.25
2017-05-24T13:46:46.637Z,77.76
2017-05-24T13:47:57.654Z,77.58
2017-05-24T13:49:08.674Z,77.58
2017-05-24T13:50:19.693Z,77.76
2017-05-24T13:51:30.766Z,78.34
2017-05-24T13:52:41.982Z,77.76
2017-05-24T13:53:53.000Z,77.67
2017-05-24T13:55:04.021Z,78.54
2017-05-24T13:56:15.036Z,77.67
2017-05-24T13:57:26.101Z,78.63
2017-05-24T13:58:37.117Z,79.11
2017-05-24T13:59:48.150Z,79.41
2017-05-24T14:00:59.173Z,80.46
2017-05-24T14:02:10.198Z,79.21
2017-05-24T14:03:21.273Z,79.6
2017-05-24T14:04:32.291Z,79.79
2017-05-24T14:05:43.308Z,79.79
2017-05-24T14:06:54.329Z,79.21
2017-05-24T14:08:05.350Z,79.89
2017-05-24T14:09:16.433Z,79.02
2017-05-24T14:10:27.660Z,80.46
2017-05-24T14:11:38.674Z,80.66
2017-05-24T14:12:49.684Z,80.27
2017-05-24T14:14:00.910Z,80.37
2017-05-24T14:15:11.969Z,80.66
2017-05-24T14:16:23.186Z,80.18
2017-05-24T14:17:34.197Z,78.63
2017-05-24T14:18:45.219Z,78.44
2017-05-24T14:19:56.447Z,80.08
2017-05-24T14:21:07.511Z,78.54
2017-05-24T14:22:18.533Z,78.29
2017-05-24T14:23:29.538Z,78.67
2017-05-24T14:24:40.766Z,78.67
2017-05-24T14:25:51.787Z,79.58
2017-05-24T14:27:02.852Z,77.55
2017-05-24T14:28:13.864Z,77.17
2017-05-24T14:29:25.088Z,77.94
2017-05-24T14:30:36.111Z,78.17
2017-05-24T14:31:47.326Z,77.3
2017-05-24T14:32:58.409Z,77.21
2017-05-24T14:34:09.429Z,76.95
2017-05-24T14:35:20.452Z,76.18
2017-05-24T14:36:31.458Z,75.54
2017-05-24T14:37:42.468Z,74.87
2017-05-24T14:38:53.482Z,74.1
2017-05-24T14:40:04.506Z,74
2017-05-24T14:41:15.542Z,74.58
2017-05-24T14:42:26.572Z,75.16
2017-05-24T14:43:37.650Z,74.38
2017-05-24T14:44:48.678Z,74.96
2017-05-24T14:45:59.708Z,74.48
2017-05-24T14:47:10.737Z,74.68
2017-05-24T14:48:21.970Z,74.87
2017-05-24T14:49:33.038Z,75.89
2017-05-24T14:50:44.068Z,75.6
2017-05-24T14:51:55.112Z,76.67
2017-05-24T14:53:06.143Z,75.99
2017-05-24T14:54:17.165Z,76.57
2017-05-24T14:55:28.232Z,76.63
2017-05-24T14:56:39.250Z,76.72
2017-05-24T14:57:50.468Z,76.05
2017-05-24T14:59:01.487Z,76.63
2017-05-24T15:00:12.496Z,76.82
2017-05-24T15:01:23.563Z,77.69
2017-05-24T15:02:34.588Z,77.88
2017-05-24T15:03:45.611Z,77.78
2017-05-24T15:04:56.647Z,77.98
2017-05-24T15:06:07.680Z,76.72
2017-05-24T15:07:19.149Z,76.53
2017-05-24T15:08:30.169Z,78.36
2017-05-24T15:09:41.198Z,77.5
2017-05-24T15:10:52.223Z,76.92
2017-05-24T15:12:03.234Z,76.43
2017-05-24T15:13:14.510Z,77.11
2017-05-24T15:14:25.729Z,76.92
2017-05-24T15:15:36.746Z,76.72
2017-05-24T15:16:47.972Z,78.17
2017-05-24T15:17:58.998Z,77.5
2017-05-24T15:19:10.273Z,78.03